Time;durP1;ratioP1;P1;durP2;ratioP2;P2;SDS_P1;SDS_P2;PMS_P1;PMS_P2;Temp;Humidity;BMP_temperature;BMP_pressure;BME280_temperature;BME280_humidity;BME280_pressure;Samples;Min_cycle;Max_cycle;Signal;HPM_P1;HPM_P2
2022/08/14 00:02:16;;;;;;;3.17;2.60;;;27.50;57.80;;;;;;5101127;27;20197;-51
2022/08/14 00:04:44;;;;;;;3.88;2.90;;;27.50;57.90;;;;;;5128877;27;20725;-51
2022/08/14 00:07:12;;;;;;;5.18;3.55;;;27.50;57.90;;;;;;5099771;28;21065;-50
2022/08/14 00:09:42;;;;;;;8.45;3.80;;;27.40;57.80;;;;;;5100758;27;20193;-40
2022/08/14 00:12:35;;;;;;;5.68;3.67;;;27.40;58.00;;;;;;5129355;27;20250;-40
2022/08/14 00:15:13;;;;;;;8.43;3.72;;;27.40;58.10;;;;;;5105471;27;20573;-40
2022/08/14 00:17:42;;;;;;;4.65;3.65;;;27.40;58.10;;;;;;5116657;27;20198;-40
2022/08/14 00:20:25;;;;;;;4.93;3.15;;;27.30;58.20;;;;;;5126398;27;20232;-40
2022/08/14 00:23:05;;;;;;;5.07;3.30;;;27.30;58.40;;;;;;5124645;28;20245;-40
2022/08/14 00:25:47;;;;;;;3.88;2.78;;;27.20;58.40;;;;;;5092125;28;20288;-40
2022/08/14 00:28:34;;;;;;;5.15;2.92;;;27.10;58.50;;;;;;5119696;27;20805;-40
2022/08/14 00:31:05;;;;;;;7.20;3.55;;;27.00;58.60;;;;;;5119470;28;20206;-42
2022/08/14 00:33:34;;;;;;;5.60;3.00;;;27.00;58.80;;;;;;5091833;28;20287;-41
2022/08/14 00:36:21;;;;;;;3.70;2.90;;;26.90;58.80;;;;;;5120343;28;20209;-41
2022/08/14 00:39:12;;;;;;;2.72;2.53;;;26.90;58.90;;;;;;5114383;28;20204;-41
2022/08/14 00:41:41;;;;;;;3.65;2.72;;;26.80;58.80;;;;;;5128406;28;20214;-41
2022/08/14 00:44:09;;;;;;;4.38;2.65;;;26.70;58.70;;;;;;5126319;28;20208;-50
2022/08/14 00:46:37;;;;;;;4.30;2.90;;;26.70;58.80;;;;;;5128040;28;20703;-50
2022/08/14 00:49:05;;;;;;;3.03;2.03;;;26.70;58.80;;;;;;5114695;28;20284;-52
2022/08/14 00:51:33;;;;;;;2.75;2.28;;;26.60;58.80;;;;;;5120367;28;20209;-50
2022/08/14 00:54:07;;;;;;;3.22;2.30;;;26.60;58.80;;;;;;5114596;28;20217;-49
2022/08/14 00:56:50;;;;;;;3.92;2.40;;;26.60;59.00;;;;;;5093452;28;20202;-50
2022/08/14 00:59:27;;;;;;;2.92;2.42;;;26.50;59.00;;;;;;5096405;28;20256;-51
2022/08/14 01:02:01;;;;;;;3.40;2.30;;;26.50;59.20;;;;;;5096956;28;20279;-49
2022/08/14 01:04:33;;;;;;;2.55;2.35;;;26.40;59.30;;;;;;5108452;28;20209;-50
2022/08/14 01:07:21;;;;;;;3.25;2.30;;;26.30;59.20;;;;;;5102561;28;20316;-52
2022/08/14 01:10:03;;;;;;;2.65;2.45;;;26.30;59.20;;;;;;5095163;28;20194;-51
2022/08/14 01:12:34;;;;;;;5.05;2.53;;;26.20;59.50;;;;;;5121212;28;20198;-51
2022/08/14 01:15:08;;;;;;;4.68;2.40;;;26.20;59.30;;;;;;5099767;27;20218;-41
2022/08/14 01:23:15;;;;;;;3.63;2.38;;;26.10;59.70;;;;;;5110251;28;20210;-41
2022/08/14 01:25:47;;;;;;;2.90;2.40;;;26.00;59.60;;;;;;5093167;27;20267;-41
2022/08/14 01:28:17;;;;;;;5.13;2.53;;;26.00;59.70;;;;;;5123953;27;20224;-41
2022/08/14 01:31:11;;;;;;;3.95;2.50;;;25.90;59.90;;;;;;5124862;27;20217;-41
2022/08/14 01:33:47;;;;;;;2.70;2.50;;;25.90;60.20;;;;;;5121611;27;20208;-41
2022/08/14 01:36:36;;;;;;;4.63;2.40;;;25.80;60.10;;;;;;5114997;27;20201;-41
2022/08/14 01:39:11;;;;;;;3.67;2.30;;;25.70;60.10;;;;;;5127865;27;20285;-41
2022/08/14 01:41:47;;;;;;;3.13;2.50;;;25.70;60.30;;;;;;5119027;27;20244;-41
2022/08/14 01:44:16;;;;;;;2.65;2.45;;;25.60;60.30;;;;;;5117057;27;20329;-41
2022/08/14 01:47:14;;;;;;;4.85;2.60;;;25.60;60.40;;;;;;5113829;27;20221;-42
2022/08/14 01:49:53;;;;;;;3.03;2.20;;;25.50;60.30;;;;;;5125942;27;20209;-41
2022/08/14 01:52:31;;;;;;;3.42;2.33;;;25.40;60.30;;;;;;5114881;27;20282;-41
2022/08/14 01:55:29;;;;;;;3.50;2.47;;;25.40;60.40;;;;;;5111524;27;20838;-41
2022/08/14 01:58:00;;;;;;;3.60;2.75;;;25.30;60.50;;;;;;5113397;27;20245;-41
2022/08/14 02:00:52;;;;;;;4.72;2.42;;;25.30;60.50;;;;;;5103315;27;20205;-49
2022/08/14 02:03:28;;;;;;;3.00;2.70;;;25.20;60.70;;;;;;5127290;27;20219;-51
2022/08/14 02:06:10;;;;;;;3.47;2.80;;;25.20;60.70;;;;;;5111518;27;20217;-50
2022/08/14 02:09:02;;;;;;;3.33;2.58;;;25.10;61.00;;;;;;5109354;27;20201;-51
2022/08/14 02:11:45;;;;;;;4.40;2.45;;;25.00;60.70;;;;;;5119100;27;20200;-52
2022/08/14 02:14:22;;;;;;;5.07;3.00;;;25.00;60.90;;;;;;5113317;27;20213;-41
2022/08/14 02:17:01;;;;;;;3.65;2.50;;;25.00;61.00;;;;;;5132760;27;20225;-41
2022/08/14 02:19:30;;;;;;;4.68;2.88;;;25.00;61.30;;;;;;5101775;27;20208;-41
2022/08/14 02:22:02;;;;;;;3.05;2.53;;;24.90;61.30;;;;;;5129699;27;20849;-41
2022/08/14 02:24:32;;;;;;;2.78;2.58;;;24.90;61.30;;;;;;5091784;28;20210;-41
2022/08/14 02:27:13;;;;;;;3.90;2.60;;;24.90;61.60;;;;;;5116170;27;20213;-41
2022/08/14 02:30:03;;;;;;;3.22;2.70;;;24.90;61.40;;;;;;5112597;27;20347;-52
2022/08/14 02:32:32;;;;;;;2.83;2.63;;;24.80;61.40;;;;;;5117180;27;20209;-51
2022/08/14 02:35:16;;;;;;;3.05;2.58;;;24.80;61.50;;;;;;5108598;27;20197;-52
2022/08/14 02:37:48;;;;;;;3.38;2.67;;;24.80;61.70;;;;;;5110225;28;20206;-52
2022/08/14 02:40:18;;;;;;;4.55;2.40;;;24.80;61.70;;;;;;5113905;27;20581;-58
2022/08/14 02:42:46;;;;;;;2.65;2.40;;;24.80;61.90;;;;;;5116285;27;20198;-51
2022/08/14 02:45:27;;;;;;;3.15;2.40;;;24.70;61.90;;;;;;5110580;27;20209;-51
2022/08/14 02:48:05;;;;;;;4.57;2.83;;;24.70;61.80;;;;;;5125696;27;20789;-51
2022/08/14 02:50:55;;;;;;;3.08;2.47;;;24.70;61.90;;;;;;5118056;27;20194;-51
2022/08/14 02:53:30;;;;;;;4.45;3.00;;;24.70;61.90;;;;;;5109381;27;20198;-51
2022/08/14 02:56:00;;;;;;;4.60;2.80;;;24.70;62.20;;;;;;5109254;27;20690;-41
2022/08/14 02:58:51;;;;;;;2.97;2.70;;;24.70;62.20;;;;;;5116967;27;20240;-41
2022/08/14 03:01:23;;;;;;;3.40;2.80;;;24.60;62.40;;;;;;5124870;27;20215;-41
2022/08/14 03:03:57;;;;;;;6.57;2.50;;;24.60;62.50;;;;;;5109539;28;20216;-41
2022/08/14 03:06:26;;;;;;;3.60;2.90;;;24.60;62.40;;;;;;5110035;27;20305;-41
2022/08/14 03:09:14;;;;;;;3.67;2.80;;;24.50;62.40;;;;;;5123889;27;20618;-40
2022/08/14 03:11:43;;;;;;;3.35;2.70;;;24.50;62.80;;;;;;5129648;27;20968;-41
2022/08/14 03:14:11;;;;;;;4.68;3.00;;;24.50;63.00;;;;;;5113179;27;20201;-41
2022/08/14 03:16:42;;;;;;;4.43;2.72;;;24.40;63.10;;;;;;5112742;27;20336;-41
2022/08/14 03:19:09;;;;;;;3.20;3.00;;;24.40;63.20;;;;;;5111720;27;20217;-41
2022/08/14 03:21:38;;;;;;;4.65;2.90;;;24.30;63.30;;;;;;5109115;27;20968;-40
2022/08/14 03:24:12;;;;;;;2.70;2.50;;;24.30;63.50;;;;;;5100638;28;20636;-41
2022/08/14 03:26:51;;;;;;;5.55;3.03;;;24.20;63.20;;;;;;5125561;27;20214;-40
2022/08/14 03:29:28;;;;;;;5.45;2.60;;;24.20;63.50;;;;;;5115643;27;20962;-40
2022/08/14 03:31:55;;;;;;;5.03;2.75;;;24.10;63.40;;;;;;5111727;27;20285;-41
2022/08/14 03:34:25;;;;;;;2.65;2.40;;;24.10;63.60;;;;;;5114048;27;20221;-41
2022/08/14 03:37:14;;;;;;;3.17;2.65;;;24.10;63.60;;;;;;5094692;28;20220;-40
2022/08/14 03:40:03;;;;;;;3.15;2.55;;;24.10;63.70;;;;;;5108715;27;20312;-41
2022/08/14 03:42:30;;;;;;;4.97;2.72;;;24.00;63.70;;;;;;5117593;27;20218;-41
2022/08/14 03:45:15;;;;;;;2.83;2.63;;;24.00;64.00;;;;;;5113015;27;20202;-40
2022/08/14 03:48:18;;;;;;;3.17;2.58;;;23.90;64.30;;;;;;5108838;28;20218;-41
2022/08/14 03:50:58;;;;;;;3.00;2.70;;;23.90;64.20;;;;;;5128142;27;20209;-41
2022/08/14 03:53:27;;;;;;;4.28;2.75;;;23.90;64.40;;;;;;5123083;27;20205;-41
2022/08/14 03:56:01;;;;;;;3.83;2.85;;;23.80;64.30;;;;;;5124759;27;20194;-41
2022/08/14 03:58:29;;;;;;;4.53;2.58;;;23.80;64.60;;;;;;5073137;28;20914;-47
2022/08/14 04:01:04;;;;;;;2.92;2.53;;;23.80;64.70;;;;;;5092188;28;20249;-41
2022/08/14 04:03:32;;;;;;;3.42;2.78;;;23.70;65.30;;;;;;5089769;28;20619;-40
2022/08/14 04:06:04;;;;;;;2.95;2.55;;;23.70;64.80;;;;;;5093575;28;20203;-40
2022/08/14 04:08:37;;;;;;;2.72;2.53;;;23.70;64.90;;;;;;5097308;28;20272;-40
2022/08/14 04:11:09;;;;;;;3.67;2.72;;;23.60;64.80;;;;;;5108918;28;20202;-40
2022/08/14 04:13:40;;;;;;;4.45;2.65;;;23.60;64.50;;;;;;5091548;28;20276;-40
2022/08/14 04:16:20;;;;;;;3.03;2.80;;;23.60;64.60;;;;;;5097492;28;20195;-40
2022/08/14 04:18:52;;;;;;;3.22;3.00;;;23.50;65.30;;;;;;5106961;28;20262;-40
2022/08/14 04:21:23;;;;;;;3.30;3.00;;;23.50;64.90;;;;;;5097604;28;20228;-40
2022/08/14 04:23:56;;;;;;;3.42;2.65;;;23.50;64.80;;;;;;5090417;28;20202;-48
2022/08/14 04:26:28;;;;;;;3.50;3.03;;;23.40;64.90;;;;;;5092276;28;20218;-49
2022/08/14 04:29:12;;;;;;;3.60;2.95;;;23.40;65.20;;;;;;5093263;28;20281;-49
2022/08/14 04:31:43;;;;;;;5.45;3.10;;;23.30;65.10;;;;;;5096107;28;20191;-49
2022/08/14 04:34:32;;;;;;;4.13;3.40;;;23.30;65.00;;;;;;5094047;28;20252;-49
2022/08/14 04:45:37;;;;;;;3.75;3.08;;;23.20;65.10;;;;;;5098308;28;20308;-48
2022/08/14 04:48:11;;;;;;;4.10;3.15;;;23.20;65.00;;;;;;5097731;28;20704;-49
2022/08/14 04:50:49;;;;;;;4.63;3.00;;;23.20;64.90;;;;;;5101646;28;20198;-50
2022/08/14 04:53:22;;;;;;;4.07;3.28;;;23.20;65.30;;;;;;5096313;28;20267;-50
2022/08/14 04:56:00;;;;;;;5.47;3.20;;;23.20;65.10;;;;;;5092198;28;20218;-51
2022/08/14 04:58:31;;;;;;;5.13;3.42;;;23.10;65.00;;;;;;5096679;27;20269;-51
2022/08/14 05:01:02;;;;;;;5.13;3.40;;;23.20;65.30;;;;;;5102024;27;20321;-49
2022/08/14 05:03:32;;;;;;;6.22;2.72;;;23.20;65.10;;;;;;5116988;27;20239;-50
2022/08/14 05:06:04;;;;;;;4.55;3.05;;;23.20;65.20;;;;;;5119481;27;20296;-50
2022/08/14 05:08:54;;;;;;;3.38;3.08;;;23.20;65.00;;;;;;5104153;27;20554;-41
2022/08/14 05:11:26;;;;;;;4.38;3.30;;;23.20;65.10;;;;;;5127007;27;20209;-41
2022/08/14 05:13:56;;;;;;;4.28;2.90;;;23.20;65.00;;;;;;5125479;27;20194;-41
2022/08/14 05:16:45;;;;;;;8.20;3.42;;;23.10;65.00;;;;;;5120429;27;20250;-50
2022/08/14 05:19:14;;;;;;;4.90;3.40;;;23.10;65.00;;;;;;5121295;27;20194;-50
2022/08/14 05:21:57;;;;;;;3.50;3.20;;;23.10;65.10;;;;;;5113629;27;20240;-51
2022/08/14 05:24:46;;;;;;;3.90;3.22;;;23.10;65.10;;;;;;5103342;27;20241;-42
2022/08/14 05:27:19;;;;;;;4.80;3.40;;;23.10;65.00;;;;;;5120095;27;20696;-42
2022/08/14 05:29:50;;;;;;;3.20;3.00;;;23.10;65.00;;;;;;5100266;27;20197;-41
2022/08/14 05:32:18;;;;;;;3.20;2.90;;;23.10;65.10;;;;;;5123241;27;20845;-40
2022/08/14 05:34:46;;;;;;;3.40;3.10;;;23.10;65.10;;;;;;5130549;27;20261;-53
2022/08/14 05:37:16;;;;;;;3.35;3.10;;;23.10;65.10;;;;;;5122163;27;20205;-51
2022/08/14 05:39:43;;;;;;;4.78;3.28;;;23.10;65.10;;;;;;5100604;27;20300;-52
2022/08/14 05:42:11;;;;;;;5.30;3.50;;;23.10;65.00;;;;;;5119864;27;20206;-49
2022/08/14 05:44:48;;;;;;;4.63;3.47;;;23.10;65.10;;;;;;5119862;27;20297;-39
2022/08/14 05:47:20;;;;;;;3.75;2.85;;;23.20;65.30;;;;;;5122464;27;20308;-39
2022/08/14 05:49:47;;;;;;;3.95;3.47;;;23.20;65.40;;;;;;5130018;27;20197;-51
2022/08/14 05:52:14;;;;;;;3.92;3.50;;;23.20;65.30;;;;;;5111237;28;20293;-52
2022/08/14 05:54:46;;;;;;;4.75;3.55;;;23.20;65.40;;;;;;5109918;27;20217;-52
2022/08/14 05:57:14;;;;;;;4.03;3.63;;;23.30;65.80;;;;;;5125231;27;20218;-51
2022/08/14 05:59:41;;;;;;;4.30;3.90;;;23.30;65.70;;;;;;5116188;27;20348;-50
2022/08/14 06:02:09;;;;;;;4.40;3.53;;;23.30;65.90;;;;;;5124442;27;20244;-51
2022/08/14 06:04:47;;;;;;;4.03;3.55;;;23.30;66.00;;;;;;5126221;27;20214;-48
2022/08/14 06:07:18;;;;;;;6.28;3.50;;;23.30;66.10;;;;;;5110679;27;20245;-50
2022/08/14 06:09:47;;;;;;;12.45;3.83;;;23.30;66.10;;;;;;5112978;27;20287;-50
2022/08/14 06:12:20;;;;;;;6.45;3.50;;;23.30;66.00;;;;;;5117564;27;20206;-52
2022/08/14 06:15:11;;;;;;;3.97;3.47;;;23.40;66.20;;;;;;5118834;27;20188;-50
2022/08/14 06:17:50;;;;;;;5.50;3.65;;;23.40;66.30;;;;;;5093854;27;20798;-50
2022/08/14 06:20:26;;;;;;;4.28;3.65;;;23.40;66.70;;;;;;5116405;27;20205;-48
2022/08/14 06:22:55;;;;;;;3.20;2.92;;;23.40;66.30;;;;;;5139367;27;20300;-48
2022/08/14 06:25:23;;;;;;;3.83;3.42;;;23.40;66.20;;;;;;5143969;27;20245;-52
2022/08/14 06:27:52;;;;;;;4.03;3.13;;;23.50;66.20;;;;;;5144007;27;20720;-50
2022/08/14 06:30:26;;;;;;;3.40;3.10;;;23.50;66.20;;;;;;5113495;27;20199;-51
2022/08/14 06:33:07;;;;;;;3.42;3.10;;;23.60;66.40;;;;;;5111564;27;20239;-52
2022/08/14 06:35:35;;;;;;;4.78;3.25;;;23.60;66.10;;;;;;5120516;27;20201;-51
2022/08/14 06:38:05;;;;;;;4.63;2.92;;;23.70;66.10;;;;;;5127707;27;20289;-51
2022/08/14 06:40:35;;;;;;;3.17;2.88;;;23.70;66.10;;;;;;5127263;27;20572;-41
2022/08/14 06:43:11;;;;;;;3.35;3.10;;;23.70;66.20;;;;;;5108746;27;20608;-51
2022/08/14 06:45:43;;;;;;;6.22;2.97;;;23.80;66.30;;;;;;5109070;27;20347;-51
2022/08/14 06:48:22;;;;;;;6.53;3.17;;;23.80;66.10;;;;;;5119232;27;20255;-53
2022/08/14 06:50:52;;;;;;;6.15;3.00;;;23.90;66.20;;;;;;5112114;27;20316;-41
2022/08/14 06:53:21;;;;;;;3.25;2.80;;;23.90;66.20;;;;;;5127178;27;20246;-41
2022/08/14 06:55:56;;;;;;;2.97;2.60;;;23.90;66.10;;;;;;5115439;27;20637;-41
2022/08/14 06:58:27;;;;;;;4.47;3.17;;;24.00;66.20;;;;;;5106615;27;20233;-40
2022/08/14 07:06:53;;;;;;;3.60;3.30;;;24.10;66.20;;;;;;5115546;27;20222;-40
2022/08/14 07:09:27;;;;;;;3.78;3.40;;;24.20;66.20;;;;;;5090778;27;20226;-40
2022/08/14 07:12:14;;;;;;;7.13;3.38;;;24.20;66.30;;;;;;5110298;27;20201;-41
2022/08/14 07:15:03;;;;;;;3.88;3.28;;;24.30;66.40;;;;;;5114781;27;20236;-40
2022/08/14 07:17:33;;;;;;;3.42;3.13;;;24.40;66.50;;;;;;5109116;27;20233;-41
2022/08/14 07:20:08;;;;;;;3.20;2.80;;;24.50;66.60;;;;;;5117845;27;20202;-40
2022/08/14 07:22:40;;;;;;;3.17;2.92;;;24.50;66.70;;;;;;5129112;27;20766;-41
2022/08/14 07:25:26;;;;;;;3.30;3.00;;;24.60;66.90;;;;;;5109725;27;20198;-40
2022/08/14 07:28:00;;;;;;;3.80;3.30;;;24.70;67.00;;;;;;5114928;27;20762;-40
2022/08/14 07:30:28;;;;;;;3.50;3.00;;;24.70;67.20;;;;;;5121733;27;20217;-40
2022/08/14 07:33:02;;;;;;;3.00;2.80;;;24.80;67.30;;;;;;5112173;27;20202;-51
2022/08/14 07:35:30;;;;;;;4.28;2.97;;;24.90;67.40;;;;;;5116095;27;20250;-53
2022/08/14 07:38:20;;;;;;;4.18;3.17;;;25.00;67.20;;;;;;5122821;27;20351;-53
2022/08/14 07:40:51;;;;;;;4.63;2.92;;;25.00;67.20;;;;;;5114779;27;20255;-53
2022/08/14 07:43:22;;;;;;;3.17;2.90;;;25.10;67.20;;;;;;5113628;27;20228;-54
2022/08/14 07:45:52;;;;;;;3.22;2.83;;;25.20;67.30;;;;;;5103801;27;20193;-55
2022/08/14 07:48:20;;;;;;;4.05;3.30;;;25.20;67.30;;;;;;5107581;28;20272;-55
2022/08/14 07:50:54;;;;;;;3.50;3.20;;;25.30;67.20;;;;;;5104101;27;20210;-55
2022/08/14 07:53:38;;;;;;;5.60;3.10;;;25.30;67.30;;;;;;5126912;27;20469;-56
2022/08/14 07:56:12;;;;;;;6.90;3.38;;;25.40;67.40;;;;;;5121756;27;20215;-53
2022/08/14 07:58:59;;;;;;;3.20;3.00;;;25.50;67.50;;;;;;5125169;27;20237;-54
2022/08/14 08:01:29;;;;;;;3.40;3.10;;;25.50;67.50;;;;;;5101260;27;20658;-54
2022/08/14 08:04:03;;;;;;;3.28;2.97;;;25.60;67.50;;;;;;5117638;27;20215;-55
2022/08/14 08:06:43;;;;;;;4.57;3.13;;;25.70;67.60;;;;;;5109439;27;20209;-54
2022/08/14 08:09:11;;;;;;;4.95;3.33;;;25.80;67.40;;;;;;5127431;27;20673;-41
2022/08/14 08:11:41;;;;;;;3.40;3.10;;;25.80;67.50;;;;;;5112612;27;20707;-41
2022/08/14 08:14:09;;;;;;;3.50;3.20;;;25.80;67.40;;;;;;5120765;27;20202;-40
2022/08/14 08:16:46;;;;;;;2.90;2.70;;;26.00;67.60;;;;;;5108043;28;20678;-41
2022/08/14 08:19:17;;;;;;;3.08;2.83;;;26.00;67.80;;;;;;5114104;28;20225;-41
2022/08/14 08:21:46;;;;;;;3.22;2.92;;;26.10;67.70;;;;;;5105580;27;20702;-41
2022/08/14 08:24:15;;;;;;;3.35;3.05;;;26.10;67.90;;;;;;5089873;27;20441;-41
2022/08/14 08:26:49;;;;;;;5.95;3.03;;;26.20;67.90;;;;;;5116800;27;20287;-41
2022/08/14 08:29:22;;;;;;;4.30;3.15;;;26.30;67.90;;;;;;5123959;28;20295;-41
2022/08/14 08:31:56;;;;;;;5.35;3.42;;;26.40;68.10;;;;;;5099569;28;20197;-41
2022/08/14 08:34:43;;;;;;;3.20;2.85;;;26.40;68.10;;;;;;5118771;28;20229;-41
2022/08/14 08:37:14;;;;;;;3.25;2.97;;;26.60;68.20;;;;;;5118515;27;20223;-41
2022/08/14 08:39:46;;;;;;;3.80;3.08;;;26.70;68.30;;;;;;5121081;27;20204;-41
2022/08/14 08:42:30;;;;;;;3.13;2.83;;;26.70;68.40;;;;;;5125674;27;20210;-41
2022/08/14 08:45:08;;;;;;;3.80;2.80;;;26.80;68.30;;;;;;5125758;27;20229;-41
2022/08/14 08:47:39;;;;;;;3.15;2.85;;;26.90;68.40;;;;;;5129126;27;20702;-41
2022/08/14 08:50:18;;;;;;;4.07;2.63;;;27.00;68.40;;;;;;5112003;27;20213;-41
2022/08/14 08:53:02;;;;;;;2.83;2.63;;;27.20;68.70;;;;;;5129942;27;20223;-41
2022/08/14 08:55:39;;;;;;;2.67;2.47;;;27.20;68.70;;;;;;5111348;27;20262;-41
2022/08/14 08:58:16;;;;;;;2.70;2.50;;;27.30;68.70;;;;;;5116050;27;20243;-41
2022/08/14 09:00:57;;;;;;;4.03;2.90;;;27.40;68.70;;;;;;5093177;28;20289;-42
2022/08/14 09:03:28;;;;;;;2.72;2.53;;;27.50;69.00;;;;;;5098165;27;20317;-41
2022/08/14 09:06:04;;;;;;;4.82;2.70;;;27.60;68.90;;;;;;5113207;27;20609;-41
2022/08/14 09:08:54;;;;;;;3.80;2.50;;;27.70;68.90;;;;;;5110949;27;20323;-41
2022/08/14 09:11:23;;;;;;;4.75;4.35;;;27.80;69.00;;;;;;5130610;27;20300;-42
2022/08/14 09:13:51;;;;;;;3.50;3.20;;;27.90;68.80;;;;;;5129768;27;20289;-41
2022/08/14 09:16:21;;;;;;;5.60;2.92;;;28.00;69.00;;;;;;5104920;28;20197;-41
2022/08/14 09:18:53;;;;;;;3.00;2.67;;;28.10;69.20;;;;;;5108565;27;20304;-41
2022/08/14 09:21:21;;;;;;;2.78;2.45;;;28.20;69.10;;;;;;5113569;27;20281;-41
2022/08/14 09:23:53;;;;;;;2.70;2.50;;;28.30;69.20;;;;;;5111577;27;20634;-41
2022/08/14 09:26:43;;;;;;;3.25;2.58;;;28.40;69.30;;;;;;5110715;27;20206;-41
2022/08/14 09:29:17;;;;;;;2.88;2.67;;;28.50;69.00;;;;;;5112369;27;20217;-42
2022/08/14 09:31:53;;;;;;;2.35;2.08;;;28.60;69.00;;;;;;5105503;27;21234;-41
2022/08/14 09:34:49;;;;;;;2.58;2.38;;;28.70;69.20;;;;;;5128080;27;20190;-41
2022/08/14 09:38:05;;;;;;;2.17;2.05;;;28.70;69.20;;;;;;5118342;27;20323;-41
2022/08/14 09:41:03;;;;;;;2.60;2.22;;;28.80;69.20;;;;;;5111917;27;20194;-41
2022/08/14 09:44:05;;;;;;;2.53;2.33;;;29.00;69.30;;;;;;5118422;27;20965;-41
2022/08/14 09:46:34;;;;;;;2.75;2.22;;;29.10;69.30;;;;;;5109891;27;20208;-40
2022/08/14 09:49:05;;;;;;;3.30;2.50;;;29.10;69.00;;;;;;5091897;28;20230;-41
2022/08/14 09:51:39;;;;;;;2.55;2.30;;;29.20;69.10;;;;;;5128040;27;20197;-41
2022/08/14 09:54:44;;;;;;;2.97;2.25;;;29.30;69.20;;;;;;5114435;27;20237;-41
2022/08/14 09:57:29;;;;;;;3.47;2.08;;;29.40;69.30;;;;;;5109656;27;20202;-41
2022/08/14 10:00:13;;;;;;;2.40;2.20;;;29.50;69.50;;;;;;5112618;27;20735;-41
2022/08/14 10:03:01;;;;;;;3.15;2.00;;;29.60;69.50;;;;;;5129059;27;20214;-41
2022/08/14 10:05:37;;;;;;;2.78;2.20;;;29.70;69.20;;;;;;5122763;27;20201;-41
2022/08/14 10:08:19;;;;;;;1.85;1.75;;;29.70;69.20;;;;;;5109008;27;20199;-41
2022/08/14 10:10:52;;;;;;;1.92;1.70;;;29.80;69.00;;;;;;5101222;28;20708;-41
2022/08/14 10:13:29;;;;;;;2.10;2.00;;;29.90;69.20;;;;;;5110002;27;20217;-41
2022/08/14 10:16:16;;;;;;;2.90;1.90;;;30.00;69.20;;;;;;5115564;27;20193;-40
2022/08/14 10:19:05;;;;;;;2.03;1.92;;;30.10;69.20;;;;;;5109348;27;20712;-41
2022/08/14 10:21:40;;;;;;;2.00;1.80;;;30.10;68.40;;;;;;5109971;27;20225;-41
2022/08/14 10:24:31;;;;;;;1.85;1.75;;;30.10;68.60;;;;;;5109274;27;20205;-41
2022/08/14 10:27:04;;;;;;;2.08;1.98;;;30.20;68.70;;;;;;5122914;27;20724;-41
2022/08/14 10:29:39;;;;;;;2.83;1.92;;;30.30;68.60;;;;;;5109919;27;20263;-40
2022/08/14 10:32:09;;;;;;;3.17;1.92;;;30.30;68.40;;;;;;5093755;27;20201;-41
2022/08/14 10:34:46;;;;;;;4.28;1.67;;;30.30;68.40;;;;;;5123029;27;20194;-41
2022/08/14 10:37:21;;;;;;;3.88;1.65;;;30.40;67.90;;;;;;5111479;27;20218;-41
2022/08/14 10:40:01;;;;;;;1.83;1.58;;;30.40;66.90;;;;;;5092108;27;20616;-41
2022/08/14 10:42:48;;;;;;;2.15;1.63;;;30.50;66.30;;;;;;5106761;27;20703;-41
2022/08/14 10:45:20;;;;;;;2.15;1.50;;;30.60;66.70;;;;;;5111021;27;20578;-41
2022/08/14 10:47:53;;;;;;;1.85;1.60;;;30.60;65.60;;;;;;5124946;27;20213;-41
2022/08/14 10:50:48;;;;;;;2.33;1.42;;;30.60;65.30;;;;;;5124527;27;20237;-41
2022/08/14 10:53:15;;;;;;;1.73;1.63;;;30.70;63.80;;;;;;5107870;27;20190;-42
2022/08/14 10:55:45;;;;;;;2.13;1.40;;;30.70;64.40;;;;;;5111765;27;20217;-42
2022/08/14 10:58:31;;;;;;;1.40;1.30;;;30.80;64.50;;;;;;5113531;27;20217;-42
2022/08/14 11:01:04;;;;;;;1.52;1.42;;;30.90;65.60;;;;;;5102161;27;20204;-42
2022/08/14 11:03:41;;;;;;;2.70;1.50;;;30.90;65.30;;;;;;5109549;27;20210;-42
2022/08/14 11:06:25;;;;;;;1.40;1.30;;;31.00;65.10;;;;;;5092339;28;20202;-42
2022/08/14 11:08:55;;;;;;;2.00;1.23;;;31.00;64.80;;;;;;5110956;27;20336;-42
2022/08/14 11:11:27;;;;;;;1.40;1.30;;;31.00;64.80;;;;;;5113308;27;20211;-42
2022/08/14 11:14:07;;;;;;;2.75;1.70;;;31.00;64.40;;;;;;5118238;27;20210;-52
2022/08/14 11:16:39;;;;;;;1.50;1.40;;;31.10;64.00;;;;;;5108383;28;20194;-55
2022/08/14 11:19:10;;;;;;;2.97;1.58;;;31.20;63.90;;;;;;5113186;27;20197;-53
2022/08/14 11:21:40;;;;;;;2.28;1.45;;;31.20;61.90;;;;;;5107871;27;20248;-51
2022/08/14 11:24:15;;;;;;;1.90;1.20;;;31.20;62.50;;;;;;5107657;27;20201;-53
2022/08/14 11:27:04;;;;;;;2.58;1.30;;;31.20;63.10;;;;;;5104223;28;20209;-56
2022/08/14 11:29:31;;;;;;;1.77;1.23;;;31.20;63.20;;;;;;5117127;27;20682;-53
2022/08/14 11:32:06;;;;;;;1.60;1.50;;;31.20;63.20;;;;;;5119561;27;20195;-52
2022/08/14 11:34:37;;;;;;;1.42;1.33;;;31.20;62.90;;;;;;5109407;27;20209;-55
2022/08/14 11:37:11;;;;;;;3.03;1.63;;;31.30;62.70;;;;;;5109471;27;20240;-54
2022/08/14 11:40:01;;;;;;;1.60;1.50;;;31.40;62.20;;;;;;5122779;27;20223;-53
2022/08/14 11:42:29;;;;;;;2.03;1.38;;;31.40;60.50;;;;;;5116391;27;20223;-55
2022/08/14 11:45:16;;;;;;;2.75;1.67;;;31.40;62.00;;;;;;5090748;27;20202;-53
2022/08/14 11:47:55;;;;;;;1.88;1.50;;;31.40;62.00;;;;;;5107695;27;20250;-55
2022/08/14 11:50:43;;;;;;;2.13;1.60;;;31.40;61.00;;;;;;5109059;27;20221;-53
2022/08/14 11:53:29;;;;;;;1.55;1.45;;;31.50;60.70;;;;;;5093204;28;20198;-54
2022/08/14 11:56:01;;;;;;;3.15;1.45;;;31.60;62.20;;;;;;5098456;27;21000;-53
2022/08/14 11:58:34;;;;;;;5.03;1.83;;;31.60;61.90;;;;;;5125137;27;20229;-52
2022/08/14 12:01:05;;;;;;;5.68;1.42;;;31.60;62.00;;;;;;5123124;27;20190;-54
2022/08/14 12:03:39;;;;;;;1.60;1.50;;;31.60;61.50;;;;;;5108639;27;20233;-55
2022/08/14 12:06:22;;;;;;;2.85;1.45;;;31.80;60.70;;;;;;5115070;27;20236;-55
2022/08/14 12:08:59;;;;;;;1.88;1.35;;;31.80;61.10;;;;;;5119670;27;20265;-54
2022/08/14 12:11:38;;;;;;;1.33;1.23;;;31.80;61.10;;;;;;5106394;27;20231;-55
2022/08/14 12:14:14;;;;;;;1.33;1.23;;;31.80;61.40;;;;;;5095161;28;20214;-56
2022/08/14 12:17:07;;;;;;;1.52;1.42;;;31.90;61.60;;;;;;5106982;28;20205;-54
2022/08/14 12:19:52;;;;;;;1.60;1.50;;;31.90;61.70;;;;;;5109946;27;20686;-52
2022/08/14 12:22:35;;;;;;;2.05;1.35;;;32.00;61.10;;;;;;5089424;28;20611;-55
2022/08/14 12:25:17;;;;;;;2.65;1.60;;;32.00;61.30;;;;;;5106001;28;20206;-41
2022/08/14 12:27:51;;;;;;;1.40;1.30;;;32.00;60.70;;;;;;5123121;27;20270;-41
2022/08/14 12:30:35;;;;;;;1.58;1.48;;;32.00;60.80;;;;;;5114203;28;20252;-41
2022/08/14 12:33:24;;;;;;;2.35;1.50;;;32.10;61.20;;;;;;5115013;28;20212;-41
2022/08/14 12:36:09;;;;;;;1.63;1.52;;;32.10;61.40;;;;;;5112274;28;20210;-41
2022/08/14 12:38:41;;;;;;;1.45;1.38;;;32.20;60.70;;;;;;5122186;27;20200;-41
2022/08/14 12:41:16;;;;;;;2.70;1.50;;;32.20;61.20;;;;;;5116612;28;20209;-42
2022/08/14 12:43:56;;;;;;;1.40;1.30;;;32.30;61.10;;;;;;5116276;28;20274;-42
2022/08/14 12:46:36;;;;;;;1.33;1.13;;;32.30;60.90;;;;;;5113431;28;20748;-42
2022/08/14 12:49:12;;;;;;;2.70;1.50;;;32.40;61.30;;;;;;5092608;28;20213;-41
2022/08/14 12:51:43;;;;;;;2.42;1.65;;;32.40;61.30;;;;;;5109590;28;20210;-41
2022/08/14 12:54:17;;;;;;;4.90;1.50;;;32.40;61.20;;;;;;5120395;28;20209;-41
2022/08/14 12:57:10;;;;;;;1.83;1.73;;;32.40;61.10;;;;;;5093058;28;20398;-41
2022/08/14 12:59:50;;;;;;;2.28;1.30;;;32.50;61.40;;;;;;5101565;28;20707;-41
2022/08/14 13:02:24;;;;;;;3.78;1.50;;;32.60;61.80;;;;;;5089755;28;20213;-42
2022/08/14 13:04:55;;;;;;;1.92;1.60;;;32.60;61.00;;;;;;5089880;28;20297;-54
2022/08/14 13:07:28;;;;;;;1.50;1.25;;;32.60;61.00;;;;;;5099186;28;20217;-55
2022/08/14 13:10:02;;;;;;;1.52;1.33;;;32.60;60.70;;;;;;5124924;28;20228;-53
2022/08/14 13:12:55;;;;;;;1.73;1.50;;;32.70;60.90;;;;;;5121875;28;20292;-54
2022/08/14 13:15:44;;;;;;;2.30;1.77;;;32.70;61.00;;;;;;5121160;28;21133;-54
2022/08/14 13:18:15;;;;;;;4.70;1.85;;;32.80;61.30;;;;;;5120210;28;20243;-54
2022/08/14 13:20:45;;;;;;;1.80;1.70;;;32.80;61.30;;;;;;5086335;28;20668;-53
2022/08/14 13:23:26;;;;;;;3.45;1.50;;;32.80;60.90;;;;;;5114088;27;20593;-54
2022/08/14 13:26:03;;;;;;;2.00;1.80;;;32.80;61.10;;;;;;5111625;27;20636;-53
2022/08/14 13:28:31;;;;;;;1.73;1.60;;;32.90;61.50;;;;;;5124010;27;20214;-54
2022/08/14 13:31:14;;;;;;;1.67;1.58;;;32.90;61.40;;;;;;5128390;27;20291;-55
2022/08/14 13:33:45;;;;;;;1.70;1.60;;;33.00;61.50;;;;;;5114684;27;20595;-55
2022/08/14 13:36:15;;;;;;;2.05;1.60;;;33.00;60.70;;;;;;5108747;27;20190;-54
2022/08/14 13:39:02;;;;;;;2.85;1.70;;;33.00;61.20;;;;;;5113531;27;20288;-54
2022/08/14 13:41:32;;;;;;;1.67;1.58;;;33.10;61.50;;;;;;5117116;27;20465;-52
2022/08/14 13:44:02;;;;;;;2.15;1.65;;;33.10;61.10;;;;;;5124669;27;20208;-54
2022/08/14 13:46:30;;;;;;;2.38;1.60;;;33.10;61.10;;;;;;5113630;27;20619;-54
2022/08/14 13:48:58;;;;;;;2.08;1.67;;;33.20;61.30;;;;;;5111922;27;20211;-41
2022/08/14 13:51:30;;;;;;;1.83;1.73;;;33.20;61.10;;;;;;5120570;27;20198;-42
2022/08/14 13:54:01;;;;;;;2.35;1.70;;;33.30;60.70;;;;;;5118202;27;20555;-42
2022/08/14 13:56:43;;;;;;;4.95;1.60;;;33.30;60.70;;;;;;5108531;27;20765;-41